sensor_id;sensor_type;location;lat;lon;timestamp;P1;durP1;ratioP1;P2;durP2;ratioP2
9294;SDS011;4686;44.496;11.324;2022-12-18T00:02:10;12.63;;;11.33;;
9294;SDS011;4686;44.496;11.324;2022-12-18T00:04:37;13.70;;;12.57;;
9294;SDS011;4686;44.496;11.324;2022-12-18T00:07:04;13.10;;;12.00;;
9294;SDS011;4686;44.496;11.324;2022-12-18T00:09:32;13.43;;;12.10;;
9294;SDS011;4686;44.496;11.324;2022-12-18T00:11:59;13.13;;;11.73;;
9294;SDS011;4686;44.496;11.324;2022-12-18T00:14:28;12.97;;;11.67;;
9294;SDS011;4686;44.496;11.324;2022-12-18T00:16:55;13.43;;;12.20;;
9294;SDS011;4686;44.496;11.324;2022-12-18T00:19:25;12.60;;;11.40;;
9294;SDS011;4686;44.496;11.324;2022-12-18T00:21:53;12.33;;;11.33;;
9294;SDS011;4686;44.496;11.324;2022-12-18T00:24:20;12.60;;;11.33;;
9294;SDS011;4686;44.496;11.324;2022-12-18T00:26:48;12.10;;;11.00;;
9294;SDS011;4686;44.496;11.324;2022-12-18T00:29:15;12.77;;;11.57;;
9294;SDS011;4686;44.496;11.324;2022-12-18T00:31:44;12.73;;;11.70;;
9294;SDS011;4686;44.496;11.324;2022-12-18T00:34:11;15.50;;;11.40;;
9294;SDS011;4686;44.496;11.324;2022-12-18T00:36:39;11.83;;;10.83;;
9294;SDS011;4686;44.496;11.324;2022-12-18T00:39:07;12.10;;;11.03;;
9294;SDS011;4686;44.496;11.324;2022-12-18T00:41:34;13.37;;;12.07;;
9294;SDS011;4686;44.496;11.324;2022-12-18T00:44:19;12.33;;;11.13;;
9294;SDS011;4686;44.496;11.324;2022-12-18T00:46:48;12.63;;;11.33;;
9294;SDS011;4686;44.496;11.324;2022-12-18T00:49:16;12.57;;;11.50;;
9294;SDS011;4686;44.496;11.324;2022-12-18T00:51:44;13.13;;;11.93;;
9294;SDS011;4686;44.496;11.324;2022-12-18T00:54:11;13.30;;;12.17;;
9294;SDS011;4686;44.496;11.324;2022-12-18T00:56:38;13.20;;;12.10;;
9294;SDS011;4686;44.496;11.324;2022-12-18T00:59:06;12.13;;;11.00;;
9294;SDS011;4686;44.496;11.324;2022-12-18T01:01:33;13.47;;;12.17;;
9294;SDS011;4686;44.496;11.324;2022-12-18T01:04:04;12.40;;;11.40;;
9294;SDS011;4686;44.496;11.324;2022-12-18T01:06:32;13.00;;;11.97;;
9294;SDS011;4686;44.496;11.324;2022-12-18T01:08:59;12.87;;;11.77;;
9294;SDS011;4686;44.496;11.324;2022-12-18T01:11:26;13.57;;;12.47;;
9294;SDS011;4686;44.496;11.324;2022-12-18T01:13:53;13.43;;;12.23;;
9294;SDS011;4686;44.496;11.324;2022-12-18T01:16:21;13.43;;;12.13;;
9294;SDS011;4686;44.496;11.324;2022-12-18T01:18:52;13.50;;;12.10;;
9294;SDS011;4686;44.496;11.324;2022-12-18T01:21:21;13.10;;;11.90;;
9294;SDS011;4686;44.496;11.324;2022-12-18T01:23:57;12.43;;;11.23;;
9294;SDS011;4686;44.496;11.324;2022-12-18T01:26:26;13.30;;;12.10;;
9294;SDS011;4686;44.496;11.324;2022-12-18T01:28:54;13.47;;;11.73;;
9294;SDS011;4686;44.496;11.324;2022-12-18T01:31:25;13.20;;;12.00;;
9294;SDS011;4686;44.496;11.324;2022-12-18T01:33:52;12.90;;;11.80;;
9294;SDS011;4686;44.496;11.324;2022-12-18T01:36:22;14.67;;;12.50;;
9294;SDS011;4686;44.496;11.324;2022-12-18T01:38:49;12.83;;;11.53;;
9294;SDS011;4686;44.496;11.324;2022-12-18T01:41:17;12.97;;;11.67;;
9294;SDS011;4686;44.496;11.324;2022-12-18T01:43:46;13.20;;;12.00;;
9294;SDS011;4686;44.496;11.324;2022-12-18T01:46:14;12.73;;;11.60;;
9294;SDS011;4686;44.496;11.324;2022-12-18T01:48:42;12.50;;;11.20;;
9294;SDS011;4686;44.496;11.324;2022-12-18T01:51:09;13.20;;;12.10;;
9294;SDS011;4686;44.496;11.324;2022-12-18T01:53:38;13.13;;;11.97;;
9294;SDS011;4686;44.496;11.324;2022-12-18T01:56:07;13.20;;;11.97;;
9294;SDS011;4686;44.496;11.324;2022-12-18T01:58:35;16.23;;;12.00;;
9294;SDS011;4686;44.496;11.324;2022-12-18T02:01:05;12.80;;;11.60;;
9294;SDS011;4686;44.496;11.324;2022-12-18T02:03:32;13.43;;;12.23;;
9294;SDS011;4686;44.496;11.324;2022-12-18T02:06:01;13.40;;;12.00;;
9294;SDS011;4686;44.496;11.324;2022-12-18T02:08:31;15.17;;;13.27;;
9294;SDS011;4686;44.496;11.324;2022-12-18T02:11:04;13.27;;;12.00;;
9294;SDS011;4686;44.496;11.324;2022-12-18T02:13:36;14.47;;;12.80;;
9294;SDS011;4686;44.496;11.324;2022-12-18T02:16:07;13.60;;;12.40;;
9294;SDS011;4686;44.496;11.324;2022-12-18T02:18:38;13.77;;;12.47;;
9294;SDS011;4686;44.496;11.324;2022-12-18T02:21:08;14.37;;;13.00;;
9294;SDS011;4686;44.496;11.324;2022-12-18T02:23:44;14.07;;;12.83;;
9294;SDS011;4686;44.496;11.324;2022-12-18T02:26:18;12.90;;;11.80;;
9294;SDS011;4686;44.496;11.324;2022-12-18T02:28:46;14.07;;;12.77;;
9294;SDS011;4686;44.496;11.324;2022-12-18T02:31:16;15.47;;;13.97;;
9294;SDS011;4686;44.496;11.324;2022-12-18T02:33:45;16.83;;;13.53;;
9294;SDS011;4686;44.496;11.324;2022-12-18T02:36:13;14.97;;;12.97;;
9294;SDS011;4686;44.496;11.324;2022-12-18T02:38:41;13.73;;;12.50;;
9294;SDS011;4686;44.496;11.324;2022-12-18T02:41:09;14.20;;;11.80;;
9294;SDS011;4686;44.496;11.324;2022-12-18T02:43:38;13.83;;;12.57;;
9294;SDS011;4686;44.496;11.324;2022-12-18T02:46:20;15.30;;;12.73;;
9294;SDS011;4686;44.496;11.324;2022-12-18T02:48:50;14.60;;;13.40;;
9294;SDS011;4686;44.496;11.324;2022-12-18T02:51:21;15.60;;;12.50;;
9294;SDS011;4686;44.496;11.324;2022-12-18T02:53:51;14.00;;;12.70;;
9294;SDS011;4686;44.496;11.324;2022-12-18T02:56:21;13.23;;;12.03;;
9294;SDS011;4686;44.496;11.324;2022-12-18T02:58:55;14.80;;;13.40;;
9294;SDS011;4686;44.496;11.324;2022-12-18T03:01:26;14.77;;;13.33;;
9294;SDS011;4686;44.496;11.324;2022-12-18T03:03:56;14.10;;;12.87;;
9294;SDS011;4686;44.496;11.324;2022-12-18T03:06:25;14.67;;;13.37;;
9294;SDS011;4686;44.496;11.324;2022-12-18T03:08:54;17.23;;;15.07;;
9294;SDS011;4686;44.496;11.324;2022-12-18T03:11:23;14.77;;;13.47;;
9294;SDS011;4686;44.496;11.324;2022-12-18T03:14:07;14.57;;;13.17;;
9294;SDS011;4686;44.496;11.324;2022-12-18T03:16:35;13.97;;;12.77;;
9294;SDS011;4686;44.496;11.324;2022-12-18T03:19:04;14.57;;;13.17;;
9294;SDS011;4686;44.496;11.324;2022-12-18T03:21:34;15.10;;;13.80;;
9294;SDS011;4686;44.496;11.324;2022-12-18T03:24:04;14.73;;;13.33;;
9294;SDS011;4686;44.496;11.324;2022-12-18T03:26:33;16.17;;;14.57;;
9294;SDS011;4686;44.496;11.324;2022-12-18T03:29:02;17.07;;;14.97;;
9294;SDS011;4686;44.496;11.324;2022-12-18T03:31:36;14.77;;;13.47;;
9294;SDS011;4686;44.496;11.324;2022-12-18T03:34:05;14.40;;;13.07;;
9294;SDS011;4686;44.496;11.324;2022-12-18T03:36:35;16.80;;;13.93;;
9294;SDS011;4686;44.496;11.324;2022-12-18T03:39:03;14.97;;;13.47;;
9294;SDS011;4686;44.496;11.324;2022-12-18T03:41:31;16.57;;;15.13;;
9294;SDS011;4686;44.496;11.324;2022-12-18T03:44:00;14.97;;;13.57;;
9294;SDS011;4686;44.496;11.324;2022-12-18T03:46:33;14.50;;;13.20;;
9294;SDS011;4686;44.496;11.324;2022-12-18T03:49:06;16.00;;;14.50;;
9294;SDS011;4686;44.496;11.324;2022-12-18T03:51:37;16.30;;;14.73;;
9294;SDS011;4686;44.496;11.324;2022-12-18T03:54:05;15.50;;;14.20;;
9294;SDS011;4686;44.496;11.324;2022-12-18T03:56:35;15.13;;;13.70;;
9294;SDS011;4686;44.496;11.324;2022-12-18T03:59:03;14.97;;;13.57;;
9294;SDS011;4686;44.496;11.324;2022-12-18T04:01:34;14.53;;;13.20;;
9294;SDS011;4686;44.496;11.324;2022-12-18T04:04:02;15.43;;;14.03;;
9294;SDS011;4686;44.496;11.324;2022-12-18T04:06:30;15.90;;;14.40;;
9294;SDS011;4686;44.496;11.324;2022-12-18T04:08:58;14.20;;;12.80;;
9294;SDS011;4686;44.496;11.324;2022-12-18T04:11:26;15.40;;;13.77;;
9294;SDS011;4686;44.496;11.324;2022-12-18T04:13:55;15.17;;;13.90;;
9294;SDS011;4686;44.496;11.324;2022-12-18T04:16:22;14.97;;;13.60;;
9294;SDS011;4686;44.496;11.324;2022-12-18T04:18:51;14.37;;;13.17;;
9294;SDS011;4686;44.496;11.324;2022-12-18T04:21:18;14.90;;;13.50;;
9294;SDS011;4686;44.496;11.324;2022-12-18T04:23:46;14.90;;;13.50;;
9294;SDS011;4686;44.496;11.324;2022-12-18T04:26:13;15.83;;;14.20;;
9294;SDS011;4686;44.496;11.324;2022-12-18T04:28:40;15.30;;;13.93;;
9294;SDS011;4686;44.496;11.324;2022-12-18T04:31:08;14.20;;;13.00;;
9294;SDS011;4686;44.496;11.324;2022-12-18T04:33:35;15.30;;;13.90;;
9294;SDS011;4686;44.496;11.324;2022-12-18T04:36:04;15.40;;;13.97;;
9294;SDS011;4686;44.496;11.324;2022-12-18T04:38:32;14.37;;;13.03;;
9294;SDS011;4686;44.496;11.324;2022-12-18T04:40:59;15.20;;;13.70;;
9294;SDS011;4686;44.496;11.324;2022-12-18T04:43:27;14.80;;;13.27;;
9294;SDS011;4686;44.496;11.324;2022-12-18T04:46:00;15.70;;;14.30;;
9294;SDS011;4686;44.496;11.324;2022-12-18T04:48:28;15.80;;;14.10;;
9294;SDS011;4686;44.496;11.324;2022-12-18T04:50:55;15.83;;;14.20;;
9294;SDS011;4686;44.496;11.324;2022-12-18T04:53:23;16.60;;;14.90;;
9294;SDS011;4686;44.496;11.324;2022-12-18T04:55:51;16.63;;;15.00;;
9294;SDS011;4686;44.496;11.324;2022-12-18T04:58:28;16.50;;;14.90;;
9294;SDS011;4686;44.496;11.324;2022-12-18T05:00:55;15.67;;;14.10;;
9294;SDS011;4686;44.496;11.324;2022-12-18T05:03:23;14.53;;;13.13;;
9294;SDS011;4686;44.496;11.324;2022-12-18T05:05:50;14.70;;;13.40;;
9294;SDS011;4686;44.496;11.324;2022-12-18T05:08:17;15.83;;;14.40;;
9294;SDS011;4686;44.496;11.324;2022-12-18T05:10:46;14.73;;;13.23;;
9294;SDS011;4686;44.496;11.324;2022-12-18T05:13:13;16.00;;;14.27;;
9294;SDS011;4686;44.496;11.324;2022-12-18T05:15:41;14.70;;;13.30;;
9294;SDS011;4686;44.496;11.324;2022-12-18T05:18:08;14.60;;;13.30;;
9294;SDS011;4686;44.496;11.324;2022-12-18T05:20:37;15.43;;;13.90;;
9294;SDS011;4686;44.496;11.324;2022-12-18T05:23:05;14.53;;;13.23;;
9294;SDS011;4686;44.496;11.324;2022-12-18T05:25:33;14.60;;;13.23;;
9294;SDS011;4686;44.496;11.324;2022-12-18T05:28:01;14.77;;;13.50;;
9294;SDS011;4686;44.496;11.324;2022-12-18T05:30:28;14.90;;;13.60;;
9294;SDS011;4686;44.496;11.324;2022-12-18T05:32:55;15.30;;;13.90;;
9294;SDS011;4686;44.496;11.324;2022-12-18T05:35:23;14.60;;;13.30;;
9294;SDS011;4686;44.496;11.324;2022-12-18T05:37:50;15.30;;;13.80;;
9294;SDS011;4686;44.496;11.324;2022-12-18T05:40:17;15.03;;;13.53;;
9294;SDS011;4686;44.496;11.324;2022-12-18T05:42:45;16.27;;;14.70;;
9294;SDS011;4686;44.496;11.324;2022-12-18T05:45:13;14.20;;;12.80;;
9294;SDS011;4686;44.496;11.324;2022-12-18T05:47:41;14.37;;;12.97;;
9294;SDS011;4686;44.496;11.324;2022-12-18T05:50:08;14.30;;;12.80;;
9294;SDS011;4686;44.496;11.324;2022-12-18T05:52:36;14.77;;;13.37;;
9294;SDS011;4686;44.496;11.324;2022-12-18T05:55:04;14.87;;;13.50;;
9294;SDS011;4686;44.496;11.324;2022-12-18T05:57:31;14.70;;;13.40;;
9294;SDS011;4686;44.496;11.324;2022-12-18T05:59:59;14.20;;;13.00;;
9294;SDS011;4686;44.496;11.324;2022-12-18T06:02:28;13.90;;;12.63;;
9294;SDS011;4686;44.496;11.324;2022-12-18T06:04:55;14.80;;;13.40;;
9294;SDS011;4686;44.496;11.324;2022-12-18T06:07:22;16.27;;;14.73;;
9294;SDS011;4686;44.496;11.324;2022-12-18T06:09:49;13.70;;;12.50;;
9294;SDS011;4686;44.496;11.324;2022-12-18T06:12:17;17.87;;;13.33;;
9294;SDS011;4686;44.496;11.324;2022-12-18T06:14:44;15.67;;;14.07;;
9294;SDS011;4686;44.496;11.324;2022-12-18T06:17:12;13.90;;;12.60;;
9294;SDS011;4686;44.496;11.324;2022-12-18T06:19:40;15.30;;;13.87;;
9294;SDS011;4686;44.496;11.324;2022-12-18T06:22:07;15.37;;;13.77;;
9294;SDS011;4686;44.496;11.324;2022-12-18T06:24:34;15.20;;;13.60;;
9294;SDS011;4686;44.496;11.324;2022-12-18T06:27:02;15.23;;;13.90;;
9294;SDS011;4686;44.496;11.324;2022-12-18T06:29:29;14.13;;;12.77;;
9294;SDS011;4686;44.496;11.324;2022-12-18T06:31:56;19.03;;;15.10;;
9294;SDS011;4686;44.496;11.324;2022-12-18T06:34:24;16.80;;;15.00;;
9294;SDS011;4686;44.496;11.324;2022-12-18T06:36:52;16.00;;;13.80;;
9294;SDS011;4686;44.496;11.324;2022-12-18T06:39:19;13.30;;;12.20;;
9294;SDS011;4686;44.496;11.324;2022-12-18T06:41:47;15.10;;;13.60;;
9294;SDS011;4686;44.496;11.324;2022-12-18T06:44:14;15.53;;;14.10;;
9294;SDS011;4686;44.496;11.324;2022-12-18T06:46:41;14.67;;;13.30;;
9294;SDS011;4686;44.496;11.324;2022-12-18T06:49:09;14.93;;;13.63;;
9294;SDS011;4686;44.496;11.324;2022-12-18T06:51:36;14.17;;;12.93;;
9294;SDS011;4686;44.496;11.324;2022-12-18T06:54:05;15.70;;;14.20;;
9294;SDS011;4686;44.496;11.324;2022-12-18T06:56:32;15.67;;;14.13;;
9294;SDS011;4686;44.496;11.324;2022-12-18T06:59:00;18.67;;;16.10;;
9294;SDS011;4686;44.496;11.324;2022-12-18T07:01:27;16.07;;;14.50;;
9294;SDS011;4686;44.496;11.324;2022-12-18T07:03:55;14.40;;;13.20;;
9294;SDS011;4686;44.496;11.324;2022-12-18T07:06:23;15.57;;;14.17;;
9294;SDS011;4686;44.496;11.324;2022-12-18T07:08:50;16.13;;;14.60;;
9294;SDS011;4686;44.496;11.324;2022-12-18T07:11:19;13.87;;;12.67;;
9294;SDS011;4686;44.496;11.324;2022-12-18T07:13:46;15.47;;;14.07;;
9294;SDS011;4686;44.496;11.324;2022-12-18T07:16:14;14.80;;;13.40;;
9294;SDS011;4686;44.496;11.324;2022-12-18T07:18:42;14.23;;;12.93;;
9294;SDS011;4686;44.496;11.324;2022-12-18T07:21:10;16.63;;;15.10;;
9294;SDS011;4686;44.496;11.324;2022-12-18T07:23:38;15.97;;;14.50;;
9294;SDS011;4686;44.496;11.324;2022-12-18T07:26:06;14.77;;;13.30;;
9294;SDS011;4686;44.496;11.324;2022-12-18T07:28:35;18.50;;;14.70;;
9294;SDS011;4686;44.496;11.324;2022-12-18T07:31:04;14.50;;;13.10;;
9294;SDS011;4686;44.496;11.324;2022-12-18T07:33:31;14.93;;;13.40;;
9294;SDS011;4686;44.496;11.324;2022-12-18T07:35:59;13.90;;;12.70;;
9294;SDS011;4686;44.496;11.324;2022-12-18T07:38:26;14.50;;;13.10;;
9294;SDS011;4686;44.496;11.324;2022-12-18T07:40:54;17.60;;;14.77;;
9294;SDS011;4686;44.496;11.324;2022-12-18T07:43:21;15.03;;;13.63;;
9294;SDS011;4686;44.496;11.324;2022-12-18T07:45:50;14.63;;;13.23;;
9294;SDS011;4686;44.496;11.324;2022-12-18T07:48:17;14.73;;;13.33;;
9294;SDS011;4686;44.496;11.324;2022-12-18T07:50:44;15.50;;;13.07;;
9294;SDS011;4686;44.496;11.324;2022-12-18T07:53:12;15.13;;;13.73;;
9294;SDS011;4686;44.496;11.324;2022-12-18T07:55:39;16.13;;;14.50;;
9294;SDS011;4686;44.496;11.324;2022-12-18T07:58:09;15.40;;;14.00;;
9294;SDS011;4686;44.496;11.324;2022-12-18T08:00:37;15.83;;;14.33;;
9294;SDS011;4686;44.496;11.324;2022-12-18T08:03:05;15.27;;;13.50;;
9294;SDS011;4686;44.496;11.324;2022-12-18T08:05:32;16.00;;;14.53;;
9294;SDS011;4686;44.496;11.324;2022-12-18T08:08:02;17.13;;;15.50;;
9294;SDS011;4686;44.496;11.324;2022-12-18T08:10:30;15.87;;;14.43;;
9294;SDS011;4686;44.496;11.324;2022-12-18T08:12:57;16.97;;;15.20;;
9294;SDS011;4686;44.496;11.324;2022-12-18T08:15:25;16.37;;;14.83;;
9294;SDS011;4686;44.496;11.324;2022-12-18T08:17:52;21.93;;;14.47;;
9294;SDS011;4686;44.496;11.324;2022-12-18T08:20:24;15.97;;;14.37;;
9294;SDS011;4686;44.496;11.324;2022-12-18T08:22:51;19.97;;;14.37;;
9294;SDS011;4686;44.496;11.324;2022-12-18T08:25:19;17.60;;;15.03;;
9294;SDS011;4686;44.496;11.324;2022-12-18T08:27:46;17.43;;;15.23;;
9294;SDS011;4686;44.496;11.324;2022-12-18T08:30:13;19.13;;;16.50;;
9294;SDS011;4686;44.496;11.324;2022-12-18T08:32:41;17.37;;;15.67;;
9294;SDS011;4686;44.496;11.324;2022-12-18T08:35:08;17.93;;;16.23;;
9294;SDS011;4686;44.496;11.324;2022-12-18T08:37:38;17.83;;;15.93;;
9294;SDS011;4686;44.496;11.324;2022-12-18T08:40:06;17.87;;;16.17;;
9294;SDS011;4686;44.496;11.324;2022-12-18T08:42:33;17.90;;;16.20;;
9294;SDS011;4686;44.496;11.324;2022-12-18T08:45:18;16.93;;;15.40;;
9294;SDS011;4686;44.496;11.324;2022-12-18T08:47:46;18.93;;;17.03;;
9294;SDS011;4686;44.496;11.324;2022-12-18T08:50:13;17.47;;;15.77;;
9294;SDS011;4686;44.496;11.324;2022-12-18T08:52:42;19.20;;;17.40;;
9294;SDS011;4686;44.496;11.324;2022-12-18T08:55:09;18.63;;;16.63;;
9294;SDS011;4686;44.496;11.324;2022-12-18T08:57:36;17.97;;;16.17;;
9294;SDS011;4686;44.496;11.324;2022-12-18T09:00:04;18.83;;;16.83;;
9294;SDS011;4686;44.496;11.324;2022-12-18T09:02:32;18.33;;;16.67;;
9294;SDS011;4686;44.496;11.324;2022-12-18T09:04:59;17.00;;;15.40;;
9294;SDS011;4686;44.496;11.324;2022-12-18T09:07:26;17.23;;;15.63;;
9294;SDS011;4686;44.496;11.324;2022-12-18T09:09:55;16.77;;;15.17;;
9294;SDS011;4686;44.496;11.324;2022-12-18T09:12:24;16.23;;;14.63;;
9294;SDS011;4686;44.496;11.324;2022-12-18T09:14:51;19.33;;;15.30;;
9294;SDS011;4686;44.496;11.324;2022-12-18T09:17:18;17.13;;;15.40;;
9294;SDS011;4686;44.496;11.324;2022-12-18T09:19:45;14.43;;;13.13;;
9294;SDS011;4686;44.496;11.324;2022-12-18T09:22:12;15.33;;;13.83;;
9294;SDS011;4686;44.496;11.324;2022-12-18T09:24:40;15.33;;;13.83;;
9294;SDS011;4686;44.496;11.324;2022-12-18T09:27:09;15.13;;;13.73;;
9294;SDS011;4686;44.496;11.324;2022-12-18T09:29:36;17.93;;;14.80;;
9294;SDS011;4686;44.496;11.324;2022-12-18T09:32:03;16.07;;;14.50;;
9294;SDS011;4686;44.496;11.324;2022-12-18T09:34:32;16.20;;;14.60;;
9294;SDS011;4686;44.496;11.324;2022-12-18T09:36:59;16.07;;;14.60;;
9294;SDS011;4686;44.496;11.324;2022-12-18T09:39:27;17.13;;;15.33;;
9294;SDS011;4686;44.496;11.324;2022-12-18T09:41:55;16.90;;;14.27;;
9294;SDS011;4686;44.496;11.324;2022-12-18T09:44:26;19.10;;;14.60;;
9294;SDS011;4686;44.496;11.324;2022-12-18T09:46:58;18.33;;;13.70;;
9294;SDS011;4686;44.496;11.324;2022-12-18T09:49:28;15.30;;;13.70;;
9294;SDS011;4686;44.496;11.324;2022-12-18T09:51:57;17.07;;;15.17;;
9294;SDS011;4686;44.496;11.324;2022-12-18T09:54:29;15.10;;;13.60;;
9294;SDS011;4686;44.496;11.324;2022-12-18T09:56:58;22.07;;;15.47;;
9294;SDS011;4686;44.496;11.324;2022-12-18T09:59:29;17.00;;;14.43;;
9294;SDS011;4686;44.496;11.324;2022-12-18T10:01:57;15.90;;;14.40;;
9294;SDS011;4686;44.496;11.324;2022-12-18T10:04:25;16.53;;;14.83;;
9294;SDS011;4686;44.496;11.324;2022-12-18T10:06:58;16.77;;;14.07;;
9294;SDS011;4686;44.496;11.324;2022-12-18T10:09:28;15.77;;;14.13;;
9294;SDS011;4686;44.496;11.324;2022-12-18T10:12:00;15.23;;;13.73;;
9294;SDS011;4686;44.496;11.324;2022-12-18T10:14:34;17.40;;;14.10;;
9294;SDS011;4686;44.496;11.324;2022-12-18T10:17:03;16.33;;;14.73;;
9294;SDS011;4686;44.496;11.324;2022-12-18T10:19:36;18.07;;;15.90;;
9294;SDS011;4686;44.496;11.324;2022-12-18T10:22:25;16.73;;;15.10;;
9294;SDS011;4686;44.496;11.324;2022-12-18T10:24:59;16.30;;;14.70;;
9294;SDS011;4686;44.496;11.324;2022-12-18T10:27:30;19.67;;;16.57;;
9294;SDS011;4686;44.496;11.324;2022-12-18T10:30:03;16.53;;;14.60;;
9294;SDS011;4686;44.496;11.324;2022-12-18T10:32:31;16.83;;;15.23;;
9294;SDS011;4686;44.496;11.324;2022-12-18T10:34:58;16.40;;;14.70;;
9294;SDS011;4686;44.496;11.324;2022-12-18T10:37:28;16.43;;;14.70;;
9294;SDS011;4686;44.496;11.324;2022-12-18T10:40:06;17.30;;;15.37;;
9294;SDS011;4686;44.496;11.324;2022-12-18T10:42:34;23.53;;;16.07;;
9294;SDS011;4686;44.496;11.324;2022-12-18T10:45:05;18.63;;;16.03;;
9294;SDS011;4686;44.496;11.324;2022-12-18T10:47:34;16.33;;;14.67;;
9294;SDS011;4686;44.496;11.324;2022-12-18T10:50:02;17.07;;;15.30;;
9294;SDS011;4686;44.496;11.324;2022-12-18T10:52:30;16.87;;;15.10;;
9294;SDS011;4686;44.496;11.324;2022-12-18T10:54:58;19.53;;;14.13;;
9294;SDS011;4686;44.496;11.324;2022-12-18T10:57:31;16.70;;;15.07;;
9294;SDS011;4686;44.496;11.324;2022-12-18T11:00:00;19.93;;;15.40;;
9294;SDS011;4686;44.496;11.324;2022-12-18T11:02:35;21.93;;;14.80;;
9294;SDS011;4686;44.496;11.324;2022-12-18T11:05:04;15.77;;;14.17;;
9294;SDS011;4686;44.496;11.324;2022-12-18T11:07:50;15.90;;;14.20;;
9294;SDS011;4686;44.496;11.324;2022-12-18T11:12:51;18.37;;;15.87;;
9294;SDS011;4686;44.496;11.324;2022-12-18T11:15:24;15.90;;;14.20;;
9294;SDS011;4686;44.496;11.324;2022-12-18T11:17:54;18.07;;;15.20;;
9294;SDS011;4686;44.496;11.324;2022-12-18T11:20:29;14.80;;;13.30;;
9294;SDS011;4686;44.496;11.324;2022-12-18T11:22:58;15.83;;;14.23;;
9294;SDS011;4686;44.496;11.324;2022-12-18T11:25:26;15.70;;;14.00;;
9294;SDS011;4686;44.496;11.324;2022-12-18T11:27:54;17.60;;;14.67;;
9294;SDS011;4686;44.496;11.324;2022-12-18T11:30:23;17.80;;;14.20;;
9294;SDS011;4686;44.496;11.324;2022-12-18T11:32:50;15.50;;;13.90;;
9294;SDS011;4686;44.496;11.324;2022-12-18T11:35:23;17.43;;;15.50;;
9294;SDS011;4686;44.496;11.324;2022-12-18T11:37:53;16.40;;;14.53;;
9294;SDS011;4686;44.496;11.324;2022-12-18T11:40:25;17.50;;;14.73;;
9294;SDS011;4686;44.496;11.324;2022-12-18T11:42:55;19.10;;;15.40;;
9294;SDS011;4686;44.496;11.324;2022-12-18T11:45:26;18.17;;;15.53;;
9294;SDS011;4686;44.496;11.324;2022-12-18T11:47:56;17.23;;;15.50;;
9294;SDS011;4686;44.496;11.324;2022-12-18T11:50:26;16.90;;;14.70;;
9294;SDS011;4686;44.496;11.324;2022-12-18T11:52:56;21.93;;;15.73;;
9294;SDS011;4686;44.496;11.324;2022-12-18T11:55:27;17.80;;;15.37;;
9294;SDS011;4686;44.496;11.324;2022-12-18T11:57:57;19.53;;;16.43;;
9294;SDS011;4686;44.496;11.324;2022-12-18T12:00:27;19.60;;;15.53;;
9294;SDS011;4686;44.496;11.324;2022-12-18T12:05:51;15.93;;;14.30;;
9294;SDS011;4686;44.496;11.324;2022-12-18T12:08:26;15.23;;;13.33;;
9294;SDS011;4686;44.496;11.324;2022-12-18T12:10:59;17.07;;;15.33;;
9294;SDS011;4686;44.496;11.324;2022-12-18T12:13:33;17.13;;;14.33;;
9294;SDS011;4686;44.496;11.324;2022-12-18T12:16:11;19.17;;;17.10;;
9294;SDS011;4686;44.496;11.324;2022-12-18T12:18:45;18.90;;;15.60;;
9294;SDS011;4686;44.496;11.324;2022-12-18T12:21:19;16.07;;;14.47;;
9294;SDS011;4686;44.496;11.324;2022-12-18T12:23:50;16.27;;;14.57;;
9294;SDS011;4686;44.496;11.324;2022-12-18T12:26:22;15.17;;;13.73;;
9294;SDS011;4686;44.496;11.324;2022-12-18T12:29:03;16.97;;;13.77;;
9294;SDS011;4686;44.496;11.324;2022-12-18T12:31:37;17.10;;;15.23;;
9294;SDS011;4686;44.496;11.324;2022-12-18T12:34:09;20.90;;;14.43;;
9294;SDS011;4686;44.496;11.324;2022-12-18T12:36:45;15.57;;;13.57;;
9294;SDS011;4686;44.496;11.324;2022-12-18T12:39:16;15.53;;;13.13;;
9294;SDS011;4686;44.496;11.324;2022-12-18T12:41:44;15.40;;;13.30;;
9294;SDS011;4686;44.496;11.324;2022-12-18T12:44:39;18.70;;;14.00;;
9294;SDS011;4686;44.496;11.324;2022-12-18T12:47:11;17.60;;;13.70;;
9294;SDS011;4686;44.496;11.324;2022-12-18T12:49:40;16.07;;;14.37;;
9294;SDS011;4686;44.496;11.324;2022-12-18T12:52:14;15.20;;;13.60;;
9294;SDS011;4686;44.496;11.324;2022-12-18T12:54:47;22.97;;;15.10;;
9294;SDS011;4686;44.496;11.324;2022-12-18T12:57:16;15.00;;;13.50;;
9294;SDS011;4686;44.496;11.324;2022-12-18T12:59:46;15.90;;;14.23;;
9294;SDS011;4686;44.496;11.324;2022-12-18T13:02:15;16.23;;;14.50;;
9294;SDS011;4686;44.496;11.324;2022-12-18T13:04:45;17.73;;;15.70;;
9294;SDS011;4686;44.496;11.324;2022-12-18T13:07:17;16.90;;;15.10;;
9294;SDS011;4686;44.496;11.324;2022-12-18T13:12:32;20.57;;;15.87;;
9294;SDS011;4686;44.496;11.324;2022-12-18T13:15:20;17.23;;;15.00;;
9294;SDS011;4686;44.496;11.324;2022-12-18T13:17:48;16.87;;;14.00;;
9294;SDS011;4686;44.496;11.324;2022-12-18T13:20:15;15.33;;;13.70;;
9294;SDS011;4686;44.496;11.324;2022-12-18T13:22:46;17.37;;;13.80;;
9294;SDS011;4686;44.496;11.324;2022-12-18T13:25:29;18.77;;;15.17;;
9294;SDS011;4686;44.496;11.324;2022-12-18T13:28:07;17.07;;;15.37;;
9294;SDS011;4686;44.496;11.324;2022-12-18T13:30:51;18.20;;;16.23;;
9294;SDS011;4686;44.496;11.324;2022-12-18T13:33:38;18.40;;;16.27;;
9294;SDS011;4686;44.496;11.324;2022-12-18T13:36:11;19.33;;;16.23;;
9294;SDS011;4686;44.496;11.324;2022-12-18T13:38:40;19.07;;;17.03;;
9294;SDS011;4686;44.496;11.324;2022-12-18T13:41:21;18.93;;;16.50;;
9294;SDS011;4686;44.496;11.324;2022-12-18T13:43:49;20.70;;;17.93;;
9294;SDS011;4686;44.496;11.324;2022-12-18T13:46:18;18.37;;;16.00;;
9294;SDS011;4686;44.496;11.324;2022-12-18T13:48:49;17.47;;;15.67;;
9294;SDS011;4686;44.496;11.324;2022-12-18T13:51:24;18.47;;;16.57;;
9294;SDS011;4686;44.496;11.324;2022-12-18T13:53:57;18.90;;;16.90;;
9294;SDS011;4686;44.496;11.324;2022-12-18T13:56:25;17.20;;;15.43;;
9294;SDS011;4686;44.496;11.324;2022-12-18T13:59:06;18.20;;;16.30;;
9294;SDS011;4686;44.496;11.324;2022-12-18T14:01:47;17.00;;;15.20;;
9294;SDS011;4686;44.496;11.324;2022-12-18T14:04:21;18.70;;;16.73;;
9294;SDS011;4686;44.496;11.324;2022-12-18T14:06:49;18.70;;;16.80;;
9294;SDS011;4686;44.496;11.324;2022-12-18T14:09:19;18.63;;;16.83;;
9294;SDS011;4686;44.496;11.324;2022-12-18T14:11:48;18.87;;;16.87;;
9294;SDS011;4686;44.496;11.324;2022-12-18T14:14:16;19.67;;;17.63;;
9294;SDS011;4686;44.496;11.324;2022-12-18T14:16:44;19.43;;;17.50;;
9294;SDS011;4686;44.496;11.324;2022-12-18T14:19:17;20.23;;;17.47;;
9294;SDS011;4686;44.496;11.324;2022-12-18T14:21:46;19.70;;;17.70;;
9294;SDS011;4686;44.496;11.324;2022-12-18T14:24:14;19.10;;;17.00;;
9294;SDS011;4686;44.496;11.324;2022-12-18T14:26:46;19.97;;;17.97;;
9294;SDS011;4686;44.496;11.324;2022-12-18T14:29:22;20.70;;;17.47;;
9294;SDS011;4686;44.496;11.324;2022-12-18T14:32:06;19.07;;;17.07;;
9294;SDS011;4686;44.496;11.324;2022-12-18T14:34:33;24.33;;;17.70;;
9294;SDS011;4686;44.496;11.324;2022-12-18T14:37:00;20.10;;;18.17;;
9294;SDS011;4686;44.496;11.324;2022-12-18T14:39:28;19.47;;;17.33;;
9294;SDS011;4686;44.496;11.324;2022-12-18T14:42:00;20.23;;;17.70;;
9294;SDS011;4686;44.496;11.324;2022-12-18T14:44:29;19.13;;;17.30;;
9294;SDS011;4686;44.496;11.324;2022-12-18T14:46:57;19.93;;;17.93;;
9294;SDS011;4686;44.496;11.324;2022-12-18T14:49:24;21.17;;;18.23;;
9294;SDS011;4686;44.496;11.324;2022-12-18T14:51:53;20.50;;;18.33;;
9294;SDS011;4686;44.496;11.324;2022-12-18T14:54:21;20.17;;;18.10;;
9294;SDS011;4686;44.496;11.324;2022-12-18T14:56:49;22.13;;;19.63;;